Time;durP1;ratioP1;P1;durP2;ratioP2;P2;SDS_P1;SDS_P2;PMS_P1;PMS_P2;Temp;Humidity;BMP_temperature;BMP_pressure;BME280_temperature;BME280_humidity;BME280_pressure;Samples;Min_cycle;Max_cycle;Signal;HPM_P1;HPM_P2
2021/12/13 00:02:23;;;;;;;;;;;;;;;;;;5038782;28;19925;-92
2021/12/13 00:04:50;;;;;;;;;;;;;;;;;;5039523;28;19920;-93
2021/12/13 00:07:16;;;;;;;;;;;;;;;;;;5040023;28;19924;-96
2021/12/13 00:09:42;;;;;;;;;;;;;;;;;;5040312;28;19921;-94
2021/12/13 00:12:08;;;;;;;;;;;;;;;;;;5040634;28;19952;-96
2021/12/13 00:14:35;;;;;;;;;;;;;;;;;;5040449;28;19928;-93
2021/12/13 00:17:01;;;;;;;;;;;;;;;;;;5040351;28;19935;-94
2021/12/13 00:19:27;;;;;;;;;;;;;;;;;;5040214;28;19929;-95
2021/12/13 00:21:54;;;;;;;;;;;;;;;;;;5039894;28;19929;-94
2021/12/13 00:24:20;;;;;;;;;;;;;;;;;;5041394;28;19943;-96
2021/12/13 00:26:46;;;;;;;;;;;;;;;;;;5038173;28;19921;-94
2021/12/13 00:29:16;;;;;;;69.72;12.55;;;;;;;;;;5042420;28;20215;-94
2021/12/13 00:31:47;;;;;;;69.57;12.80;;;;;;;;;;5037492;28;20195;-94
2021/12/13 00:34:21;;;;;;;71.28;13.07;;;;;;;;;;5039142;28;20194;-95
2021/12/13 00:36:50;;;;;;;72.18;12.80;;;;;;;;;;5039984;28;20206;-93
2021/12/13 00:39:20;;;;;;;71.90;13.00;;;;;;;;;;5038998;28;20223;-94
2021/12/13 00:41:48;;;;;;;73.00;13.70;;;;;;;;;;5038644;28;20121;-94
2021/12/13 00:44:18;;;;;;;70.93;12.25;;;;;;;;;;5039344;28;20332;-93
2021/12/13 00:46:46;;;;;;;71.10;12.90;;;;;;;;;;5039597;28;20662;-95
2021/12/13 00:49:14;;;;;;;71.75;12.27;;;;;;;;;;5041416;28;20206;-94
2021/12/13 00:51:43;;;;;;;71.50;13.60;;;;;;;;;;5038434;28;20210;-92
2021/12/13 00:54:12;;;;;;;75.82;13.98;;;;;;;;;;5039437;28;20197;-95
2021/12/13 00:56:48;;;;;;;70.53;13.52;;;;;;;;;;5039188;28;20195;-95
2021/12/13 00:59:19;;;;;;;75.05;13.75;;;;;;;;;;5038122;28;20221;-95
2021/12/13 01:01:52;;;;;;;74.38;14.25;;;;;;;;;;5038027;28;20337;-94
2021/12/13 01:04:19;;;;;;;71.25;13.40;;;;;;;;;;5038612;28;20202;-95
2021/12/13 01:06:58;;;;;;;70.57;12.95;;;;;;;;;;5039108;28;20276;-94
2021/12/13 01:09:43;;;;;;;70.78;13.20;;;;;;;;;;5039155;28;20198;-93
2021/12/13 01:12:12;;;;;;;74.70;15.23;;;;;;;;;;5038369;28;20233;-93
2021/12/13 01:14:44;;;;;;;72.55;13.45;;;;;;;;;;5038512;28;20191;-93
2021/12/13 01:17:19;;;;;;;70.40;13.32;;;;;;;;;;5040629;28;20206;-93
2021/12/13 01:19:51;;;;;;;70.38;12.90;;;;;;;;;;5042791;28;20193;-96
2021/12/13 01:22:46;;;;;;;71.20;12.75;;;;;;;;;;5042652;28;20206;-93
2021/12/13 01:25:38;;;;;;;70.85;14.13;;;;;;;;;;5042762;28;20211;-93
2021/12/13 01:28:07;;;;;;;72.32;13.98;;;;;;;;;;5043167;28;20197;-93
2021/12/13 01:30:35;;;;;;;71.07;13.52;;;;;;;;;;5044411;28;20194;-93
2021/12/13 01:33:13;;;;;;;72.60;13.38;;;;;;;;;;5041847;28;20235;-96
2021/12/13 01:35:41;;;;;;;71.03;12.68;;;;;;;;;;5040781;28;20206;-93
2021/12/13 01:38:10;;;;;;;72.93;13.52;;;;;;;;;;5042017;28;20238;-95
2021/12/13 01:40:39;;;;;;;69.82;12.15;;;;;;;;;;5041777;28;20198;-96
2021/12/13 01:43:11;;;;;;;70.38;13.02;;;;;;;;;;5042230;28;20186;-95
2021/12/13 01:45:38;;;;;;;74.78;13.60;;;;;;;;;;5041769;28;20203;-92
2021/12/13 01:48:07;;;;;;;69.45;12.60;;;;;;;;;;5044226;28;20198;-92
2021/12/13 01:50:43;;;;;;;71.30;12.77;;;;;;;;;;5044165;28;20221;-94
2021/12/13 01:53:10;;;;;;;73.38;12.63;;;;;;;;;;5041999;28;20197;-94
2021/12/13 01:55:39;;;;;;;70.07;12.88;;;;;;;;;;5042031;28;20220;-94
2021/12/13 01:58:21;;;;;;;71.15;12.60;;;;;;;;;;5041893;28;20222;-96
2021/12/13 02:03:41;;;;;;;70.22;12.55;;;;;;;;;;5044169;28;20298;-96
2021/12/13 02:06:08;;;;;;;69.93;12.85;;;;;;;;;;5042597;28;20202;-94
2021/12/13 02:08:35;;;;;;;69.45;12.27;;;;;;;;;;5041460;28;20217;-91
2021/12/13 02:11:02;;;;;;;68.47;12.20;;;;;;;;;;5040735;28;20257;-94
2021/12/13 02:13:34;;;;;;;71.28;13.15;;;;;;;;;;5042367;28;20202;-92
2021/12/13 02:18:49;;;;;;;70.68;12.10;;;;;;;;;;5040915;28;20279;-91
2021/12/13 02:21:22;;;;;;;66.85;10.35;;;;;;;;;;5041898;28;20202;-94
2021/12/13 02:23:51;;;;;;;68.65;11.52;;;;;;;;;;5043069;28;20213;-92
2021/12/13 02:26:18;;;;;;;67.30;10.93;;;;;;;;;;5041772;28;20208;-96
2021/12/13 02:28:46;;;;;;;69.53;12.30;;;;;;;;;;5041355;28;20227;-94
2021/12/13 02:31:14;;;;;;;68.82;12.35;;;;;;;;;;5041581;28;20283;-93
2021/12/13 02:33:42;;;;;;;70.80;13.27;;;;;;;;;;5041683;28;20263;-91
2021/12/13 02:36:12;;;;;;;70.65;12.52;;;;;;;;;;5042256;28;20190;-95
2021/12/13 02:38:39;;;;;;;71.30;12.05;;;;;;;;;;5042189;28;20221;-92
2021/12/13 02:41:08;;;;;;;68.82;11.80;;;;;;;;;;5041351;28;20201;-94
2021/12/13 02:43:41;;;;;;;68.65;12.05;;;;;;;;;;5042280;28;20294;-93
2021/12/13 02:46:13;;;;;;;71.30;12.15;;;;;;;;;;5046700;28;20220;-95
2021/12/13 02:48:49;;;;;;;69.95;11.50;;;;;;;;;;5044058;28;20201;-96
2021/12/13 02:51:18;;;;;;;69.50;11.98;;;;;;;;;;5042938;28;20210;-91
2021/12/13 02:53:46;;;;;;;68.95;11.85;;;;;;;;;;5048161;28;20221;-94
2021/12/13 02:56:16;;;;;;;70.57;11.77;;;;;;;;;;5044040;28;20198;-92
2021/12/13 02:58:42;;;;;;;69.28;10.90;;;;;;;;;;5048350;28;20225;-93
2021/12/13 03:01:12;;;;;;;67.85;11.43;;;;;;;;;;5046512;28;20198;-93
2021/12/13 03:03:40;;;;;;;70.10;11.15;;;;;;;;;;5034940;28;20209;-92
2021/12/13 03:06:08;;;;;;;70.70;11.38;;;;;;;;;;5043765;28;20191;-96
2021/12/13 03:08:36;;;;;;;68.05;11.05;;;;;;;;;;5053727;28;20233;-94
2021/12/13 03:11:07;;;;;;;69.60;11.25;;;;;;;;;;5049937;28;20299;-95
2021/12/13 03:13:35;;;;;;;67.78;10.77;;;;;;;;;;5040967;28;20575;-95
2021/12/13 03:16:03;;;;;;;67.22;10.40;;;;;;;;;;5043780;28;20210;-96
2021/12/13 03:18:33;;;;;;;68.43;11.13;;;;;;;;;;5043379;28;20222;-94
2021/12/13 03:21:19;;;;;;;66.57;10.32;;;;;;;;;;5040464;28;20194;-92
2021/12/13 03:23:56;;;;;;;68.38;10.63;;;;;;;;;;5045135;28;20196;-93
2021/12/13 03:29:05;;;;;;;67.35;10.82;;;;;;;;;;5047246;22;20239;-93
2021/12/13 03:31:34;;;;;;;65.78;10.55;;;;;;;;;;5043384;28;20205;-94
2021/12/13 03:34:02;;;;;;;67.18;10.45;;;;;;;;;;5040356;28;20262;-94
2021/12/13 03:36:37;;;;;;;66.85;10.30;;;;;;;;;;5041977;28;20236;-92
2021/12/13 03:39:06;;;;;;;70.38;10.55;;;;;;;;;;5040567;28;20256;-94
2021/12/13 03:41:34;;;;;;;67.53;10.63;;;;;;;;;;5039153;28;20206;-94
2021/12/13 03:44:04;;;;;;;66.22;10.27;;;;;;;;;;5041459;28;20207;-92
2021/12/13 03:46:31;;;;;;;66.78;10.50;;;;;;;;;;5041945;28;20189;-95
2021/12/13 03:48:58;;;;;;;67.00;10.60;;;;;;;;;;5039000;28;20210;-94
2021/12/13 03:51:27;;;;;;;66.47;10.45;;;;;;;;;;5038623;28;20224;-93
2021/12/13 03:53:54;;;;;;;66.13;10.27;;;;;;;;;;5045682;28;20224;-95
2021/12/13 03:56:23;;;;;;;66.95;10.70;;;;;;;;;;5042415;28;20221;-94
2021/12/13 03:58:52;;;;;;;66.40;10.15;;;;;;;;;;5041623;28;20317;-93
2021/12/13 04:01:25;;;;;;;66.15;10.15;;;;;;;;;;5040506;28;20204;-95
2021/12/13 04:03:55;;;;;;;67.40;10.75;;;;;;;;;;5040642;28;20196;-96
2021/12/13 04:06:21;;;;;;;66.55;10.15;;;;;;;;;;5041569;28;20217;-94
2021/12/13 04:08:49;;;;;;;65.22;10.18;;;;;;;;;;5043860;28;20206;-96
2021/12/13 04:11:16;;;;;;;66.55;10.90;;;;;;;;;;5041431;28;20198;-95
2021/12/13 04:13:44;;;;;;;66.78;10.20;;;;;;;;;;5040396;28;20229;-95
2021/12/13 04:16:15;;;;;;;65.78;10.30;;;;;;;;;;5039985;28;20224;-94
2021/12/13 04:21:38;;;;;;;65.75;10.35;;;;;;;;;;5040590;28;20673;-95
2021/12/13 04:24:06;;;;;;;65.40;10.32;;;;;;;;;;5038405;28;20193;-94
2021/12/13 04:26:37;;;;;;;65.63;9.73;;;;;;;;;;5040114;28;20198;-94
2021/12/13 04:29:04;;;;;;;66.25;10.80;;;;;;;;;;5038621;28;20238;-92
2021/12/13 04:31:31;;;;;;;67.30;11.13;;;;;;;;;;5040255;28;20206;-92
2021/12/13 04:34:00;;;;;;;67.18;10.60;;;;;;;;;;5041701;28;20202;-96
2021/12/13 04:36:29;;;;;;;66.18;9.90;;;;;;;;;;5041136;28;20268;-94
2021/12/13 04:39:01;;;;;;;65.32;10.43;;;;;;;;;;5042625;28;20198;-92
2021/12/13 04:41:37;;;;;;;67.43;9.63;;;;;;;;;;5039882;28;21402;-96
2021/12/13 04:44:05;;;;;;;66.30;10.45;;;;;;;;;;5040782;28;21038;-93
2021/12/13 04:46:32;;;;;;;65.80;10.50;;;;;;;;;;5038996;28;20203;-94
2021/12/13 04:49:03;;;;;;;66.05;10.30;;;;;;;;;;5037079;28;20208;-96
2021/12/13 04:51:36;;;;;;;66.55;10.38;;;;;;;;;;5036533;28;20689;-95
2021/12/13 04:54:10;;;;;;;68.03;10.65;;;;;;;;;;5045440;28;20364;-96
2021/12/13 04:56:36;;;;;;;67.35;10.32;;;;;;;;;;5038673;28;20257;-91
2021/12/13 04:59:04;;;;;;;67.72;10.20;;;;;;;;;;5038476;28;20248;-96
2021/12/13 05:01:30;;;;;;;67.03;10.38;;;;;;;;;;5035261;28;20207;-93
2021/12/13 05:04:06;;;;;;;67.45;10.60;;;;;;;;;;5039782;28;20203;-96
2021/12/13 05:06:38;;;;;;;67.95;10.60;;;;;;;;;;5039300;28;20207;-96
2021/12/13 05:09:06;;;;;;;68.78;11.00;;;;;;;;;;5042028;28;20203;-96
2021/12/13 05:11:34;;;;;;;67.20;10.63;;;;;;;;;;5035211;28;20204;-92
2021/12/13 05:14:01;;;;;;;66.63;10.75;;;;;;;;;;5038564;28;20195;-93
2021/12/13 05:16:29;;;;;;;66.10;10.45;;;;;;;;;;5036161;28;20217;-96
2021/12/13 05:19:05;;;;;;;66.78;10.45;;;;;;;;;;5039892;28;20221;-96
2021/12/13 05:21:34;;;;;;;68.75;11.20;;;;;;;;;;5039954;28;20198;-93
2021/12/13 05:24:05;;;;;;;66.95;10.90;;;;;;;;;;5037281;28;20223;-95
2021/12/13 05:26:35;;;;;;;66.15;10.48;;;;;;;;;;5043177;28;20281;-95
2021/12/13 05:29:02;;;;;;;69.40;11.43;;;;;;;;;;5039818;28;20230;-92
2021/12/13 05:31:29;;;;;;;67.97;11.50;;;;;;;;;;5039433;28;20225;-94
2021/12/13 05:33:57;;;;;;;71.78;11.13;;;;;;;;;;5041977;28;20198;-95
2021/12/13 05:36:25;;;;;;;67.50;10.80;;;;;;;;;;5040415;28;20617;-92
2021/12/13 05:39:01;;;;;;;67.82;10.95;;;;;;;;;;5041854;28;20223;-93
2021/12/13 05:41:55;;;;;;;69.10;10.75;;;;;;;;;;5043473;28;20206;-96
2021/12/13 05:44:25;;;;;;;67.75;11.25;;;;;;;;;;5043436;22;20234;-96
2021/12/13 05:46:52;;;;;;;67.57;10.95;;;;;;;;;;5020312;28;20211;-93
2021/12/13 05:51:51;;;;;;;66.70;10.88;;;;;;;;;;5028551;22;20229;-96
2021/12/13 05:54:25;;;;;;;70.28;11.60;;;;;;;;;;5021368;28;20195;-96
2021/12/13 05:56:55;;;;;;;69.47;11.43;;;;;;;;;;5026160;28;20218;-92
2021/12/13 05:59:26;;;;;;;74.22;12.95;;;;;;;;;;5044084;22;20231;-96
2021/12/13 06:02:06;;;;;;;75.60;13.15;;;;;;;;;;5041031;28;21115;-96
2021/12/13 06:04:36;;;;;;;69.40;11.70;;;;;;;;;;5035673;28;20693;-95
2021/12/13 06:07:19;;;;;;;69.85;12.23;;;;;;;;;;5052656;22;20213;-96
2021/12/13 06:09:48;;;;;;;72.25;13.30;;;;;;;;;;5046418;28;20194;-94
2021/12/13 06:12:17;;;;;;;68.65;11.82;;;;;;;;;;5043960;28;20203;-96
2021/12/13 06:14:44;;;;;;;66.57;10.52;;;;;;;;;;5044343;28;20205;-96
2021/12/13 06:17:17;;;;;;;73.07;11.93;;;;;;;;;;5045376;28;20269;-95
2021/12/13 06:19:52;;;;;;;70.70;12.38;;;;;;;;;;5044304;28;20226;-96
2021/12/13 06:22:20;;;;;;;68.18;11.70;;;;;;;;;;5044715;28;20204;-96
2021/12/13 06:24:55;;;;;;;69.80;12.27;;;;;;;;;;5043517;28;20204;-96
2021/12/13 06:27:30;;;;;;;67.68;11.63;;;;;;;;;;5048814;28;20272;-96
2021/12/13 06:30:10;;;;;;;69.45;12.55;;;;;;;;;;5054990;22;20244;-94
2021/12/13 06:32:40;;;;;;;69.40;11.70;;;;;;;;;;5045532;28;20236;-96
2021/12/13 06:35:25;;;;;;;71.10;12.20;;;;;;;;;;5047612;28;20527;-96
2021/12/13 06:37:51;;;;;;;69.97;12.63;;;;;;;;;;5048703;28;20198;-94
2021/12/13 06:43:24;;;;;;;69.85;12.18;;;;;;;;;;5051822;28;20191;-93
2021/12/13 06:45:50;;;;;;;69.90;12.65;;;;;;;;;;5053088;28;20220;-93
2021/12/13 06:48:18;;;;;;;69.15;12.50;;;;;;;;;;5044509;28;20224;-96
2021/12/13 06:50:47;;;;;;;71.45;13.07;;;;;;;;;;5041816;28;20217;-91
2021/12/13 06:53:15;;;;;;;73.63;13.50;;;;;;;;;;5043403;28;20203;-95
2021/12/13 06:55:42;;;;;;;75.35;13.63;;;;;;;;;;5044894;28;20194;-94
2021/12/13 06:58:36;;;;;;;71.03;12.75;;;;;;;;;;5045008;28;20204;-96
2021/12/13 07:01:07;;;;;;;71.30;12.95;;;;;;;;;;5037792;28;20231;-92
2021/12/13 07:03:34;;;;;;;69.88;12.30;;;;;;;;;;5043610;28;20234;-96
2021/12/13 07:06:02;;;;;;;71.65;12.60;;;;;;;;;;5037649;28;20208;-94
2021/12/13 07:08:30;;;;;;;70.10;12.82;;;;;;;;;;5046246;28;20219;-94
2021/12/13 07:11:12;;;;;;;71.22;13.18;;;;;;;;;;5055479;28;20181;-96
2021/12/13 07:13:39;;;;;;;71.57;12.63;;;;;;;;;;5046305;28;20249;-96
2021/12/13 07:16:11;;;;;;;75.88;13.35;;;;;;;;;;5048615;28;20291;-96
2021/12/13 07:18:44;;;;;;;74.72;13.98;;;;;;;;;;5047425;28;20237;-91
2021/12/13 07:21:12;;;;;;;74.70;14.05;;;;;;;;;;5040626;28;20234;-95
2021/12/13 07:23:52;;;;;;;73.10;13.82;;;;;;;;;;5040788;28;20213;-96
2021/12/13 07:26:35;;;;;;;73.00;13.35;;;;;;;;;;5045570;28;20194;-96
2021/12/13 07:29:08;;;;;;;70.05;12.40;;;;;;;;;;5043636;28;20619;-96
2021/12/13 07:31:37;;;;;;;75.65;14.07;;;;;;;;;;5051546;28;20224;-96
2021/12/13 07:34:14;;;;;;;71.13;13.00;;;;;;;;;;5041721;28;20178;-96
2021/12/13 07:36:41;;;;;;;73.20;14.27;;;;;;;;;;5046467;28;20216;-93
2021/12/13 07:39:15;;;;;;;73.18;14.30;;;;;;;;;;5050475;28;20182;-96
2021/12/13 07:41:59;;;;;;;70.72;11.90;;;;;;;;;;5050368;28;20210;-96
2021/12/13 07:44:38;;;;;;;70.70;12.07;;;;;;;;;;5053110;28;20205;-96
2021/12/13 07:47:14;;;;;;;74.93;12.63;;;;;;;;;;5050470;28;20190;-96
2021/12/13 07:49:43;;;;;;;71.07;12.68;;;;;;;;;;5043612;28;20206;-96
2021/12/13 07:52:10;;;;;;;71.95;13.10;;;;;;;;;;5038764;28;20206;-95
2021/12/13 07:54:39;;;;;;;70.28;13.25;;;;;;;;;;5040150;28;20197;-93
2021/12/13 07:57:14;;;;;;;71.97;13.50;;;;;;;;;;5036831;28;20229;-94
2021/12/13 07:59:41;;;;;;;73.10;13.07;;;;;;;;;;5029061;28;20252;-94
2021/12/13 08:02:11;;;;;;;76.28;14.30;;;;;;;;;;5036154;28;20266;-94
2021/12/13 08:04:46;;;;;;;73.28;13.40;;;;;;;;;;5035321;28;21448;-96
2021/12/13 08:07:16;;;;;;;71.50;13.52;;;;;;;;;;5036144;28;20213;-94
2021/12/13 08:09:44;;;;;;;71.50;13.35;;;;;;;;;;5035922;28;20210;-94
2021/12/13 08:12:19;;;;;;;73.82;13.65;;;;;;;;;;5036777;28;20371;-96
2021/12/13 08:14:46;;;;;;;72.25;13.60;;;;;;;;;;5037446;28;20207;-96
2021/12/13 08:17:18;;;;;;;74.88;14.68;;;;;;;;;;5028563;28;20214;-96
2021/12/13 08:19:45;;;;;;;75.43;14.73;;;;;;;;;;5035757;28;20236;-96
2021/12/13 08:22:13;;;;;;;70.40;12.90;;;;;;;;;;5037097;28;20218;-96
2021/12/13 08:24:43;;;;;;;73.22;13.23;;;;;;;;;;5030953;28;20203;-95
2021/12/13 08:27:11;;;;;;;70.03;12.15;;;;;;;;;;5047101;28;20186;-94
2021/12/13 08:30:03;;;;;;;70.70;12.20;;;;;;;;;;5047368;28;20811;-95
2021/12/13 08:35:19;;;;;;;70.90;12.90;;;;;;;;;;5056450;22;20234;-96
2021/12/13 08:37:55;;;;;;;68.90;11.63;;;;;;;;;;5047552;28;20190;-96
2021/12/13 08:40:46;;;;;;;65.25;10.43;;;;;;;;;;5035272;22;20248;-96
2021/12/13 08:43:13;;;;;;;69.18;12.55;;;;;;;;;;5015374;28;20191;-96
2021/12/13 08:45:45;;;;;;;68.35;11.82;;;;;;;;;;5083435;23;20250;-96
2021/12/13 08:48:51;;;;;;;68.55;11.30;;;;;;;;;;5028978;28;20330;-96
2021/12/13 08:51:22;;;;;;;70.05;12.80;;;;;;;;;;5026924;28;20215;-96
2021/12/13 08:53:59;;;;;;;71.13;13.13;;;;;;;;;;5027262;28;20214;-96
2021/12/13 08:59:24;;;;;;;72.60;14.30;;;;;;;;;;5042948;23;20247;-96
2021/12/13 09:01:53;;;;;;;76.47;14.00;;;;;;;;;;5030517;28;20487;-96
2021/12/13 09:04:25;;;;;;;75.32;14.07;;;;;;;;;;5593384;22;20493;-95
2021/12/13 09:07:00;;;;;;;70.20;12.77;;;;;;;;;;5237569;22;20224;-96
2021/12/13 09:09:31;;;;;;;69.10;11.90;;;;;;;;;;5053398;28;20175;-95
2021/12/13 09:12:00;;;;;;;71.73;13.27;;;;;;;;;;5041371;28;20481;-96
2021/12/13 09:21:13;;;;;;;68.97;11.65;;;;;;;;;;5050516;28;20230;-96
2021/12/13 09:23:52;;;;;;;68.70;11.00;;;;;;;;;;5045956;28;20216;-96
2021/12/13 09:26:31;;;;;;;73.03;12.45;;;;;;;;;;5252761;22;20578;-96
2021/12/13 09:29:25;;;;;;;70.57;12.80;;;;;;;;;;5053696;28;20172;-96
2021/12/13 09:31:57;;;;;;;72.60;13.65;;;;;;;;;;5046628;28;20232;-96
2021/12/13 09:37:31;;;;;;;68.97;12.80;;;;;;;;;;5051254;28;20198;-95
2021/12/13 09:40:12;;;;;;;67.07;11.53;;;;;;;;;;5241833;22;20505;-96
2021/12/13 09:42:46;;;;;;;69.57;12.35;;;;;;;;;;5049681;28;20453;-96
2021/12/13 09:45:14;;;;;;;71.35;13.88;;;;;;;;;;5052731;28;20181;-96
2021/12/13 09:50:32;;;;;;;70.22;12.75;;;;;;;;;;5054393;28;20433;-96
2021/12/13 09:53:02;;;;;;;78.95;12.35;;;;;;;;;;5148707;22;20251;-96
2021/12/13 09:58:11;;;;;;;72.70;13.18;;;;;;;;;;5058536;22;20226;-96
2021/12/13 10:00:58;;;;;;;76.60;11.45;;;;;;;;;;5187885;22;20424;-96
2021/12/13 10:03:48;;;;;;;67.47;11.40;;;;;;;;;;5127410;22;20109;-96
2021/12/13 10:06:19;;;;;;;68.63;10.70;;;;;;;;;;5057775;22;20656;-94
2021/12/13 10:09:10;;;;;;;69.07;12.55;;;;;;;;;;5053776;28;20504;-96
2021/12/13 10:11:39;;;;;;;70.13;11.75;;;;;;;;;;5053725;28;20252;-96
2021/12/13 10:14:11;;;;;;;71.67;12.80;;;;;;;;;;5054029;28;20183;-95
2021/12/13 10:16:42;;;;;;;74.95;13.60;;;;;;;;;;5161067;22;20222;-96
2021/12/13 10:24:40;;;;;;;73.68;12.30;;;;;;;;;;5276258;22;20686;-95
2021/12/13 10:27:07;;;;;;;71.07;13.15;;;;;;;;;;5310278;22;20246;-96
2021/12/13 10:29:36;;;;;;;75.70;14.02;;;;;;;;;;5141390;22;20952;-96
2021/12/13 10:32:06;;;;;;;67.87;11.07;;;;;;;;;;5046979;28;20305;-95
2021/12/13 10:37:25;;;;;;;74.28;12.00;;;;;;;;;;4953252;22;20257;-96
2021/12/13 10:42:56;;;;;;;75.82;14.63;;;;;;;;;;5138833;22;20246;-95
2021/12/13 10:45:39;;;;;;;72.93;14.02;;;;;;;;;;5054610;28;20190;-96
2021/12/13 10:48:13;;;;;;;72.05;13.00;;;;;;;;;;5121243;22;20290;-96
2021/12/13 10:55:54;;;;;;;69.60;12.40;;;;;;;;;;5033570;28;20200;-96
2021/12/13 11:08:00;;;;;;;74.10;13.70;;;;;;;;;;5284090;22;1252082;-96
2021/12/13 11:10:45;;;;;;;85.72;13.82;;;;;;;;;;5190556;22;20272;-96
2021/12/13 11:13:18;;;;;;;68.90;10.40;;;;;;;;;;5314500;22;20239;-91
2021/12/13 11:21:12;;;;;;;72.70;13.15;;;;;;;;;;5110917;22;20281;-96
2021/12/13 11:23:44;;;;;;;72.70;12.63;;;;;;;;;;5052912;28;20198;-96
2021/12/13 11:26:15;;;;;;;73.20;13.27;;;;;;;;;;5059529;22;20231;-95
2021/12/13 11:28:42;;;;;;;75.50;14.30;;;;;;;;;;5083998;22;20292;-95
2021/12/13 11:31:46;;;;;;;77.53;15.68;;;;;;;;;;5048548;28;20988;-96
2021/12/13 11:34:43;;;;;;;71.93;14.30;;;;;;;;;;5401679;22;20228;-96
2021/12/13 11:37:28;;;;;;;76.05;14.50;;;;;;;;;;5070175;22;20249;-96
2021/12/13 11:40:11;;;;;;;71.60;13.60;;;;;;;;;;5016054;28;20189;-95
2021/12/13 11:43:06;;;;;;;72.18;13.00;;;;;;;;;;5008815;28;20201;-95
2021/12/13 11:45:58;;;;;;;71.70;12.48;;;;;;;;;;5015046;28;20207;-95
2021/12/13 11:48:46;;;;;;;70.72;13.27;;;;;;;;;;5012400;28;20206;-96
2021/12/13 11:51:27;;;;;;;74.18;12.40;;;;;;;;;;5013874;28;20210;-95
2021/12/13 11:54:11;;;;;;;71.80;12.10;;;;;;;;;;5015297;28;20662;-96
2021/12/13 11:57:01;;;;;;;71.63;12.65;;;;;;;;;;4945318;29;20212;-96
2021/12/13 11:59:28;;;;;;;;;;;;;;;;;;4976702;23;20112;-96
2021/12/13 12:02:10;;;;;;;71.20;12.80;;;;;;;;;;5276148;22;19931;-95
2021/12/13 12:04:36;;;;;;;;;;;;;;;;;;5163553;22;20053;-96
2021/12/13 12:07:47;;;;;;;72.03;13.88;;;;;;;;;;5040873;28;20205;-96
2021/12/13 12:13:28;;;;;;;71.83;12.23;;;;;;;;;;5003231;28;20254;-95
2021/12/13 12:19:19;;;;;;;68.82;11.95;;;;;;;;;;5005401;28;20207;-96
2021/12/13 12:21:58;;;;;;;72.30;13.60;;;;;;;;;;5003474;28;20232;-93
2021/12/13 12:24:27;;;;;;;70.93;12.52;;;;;;;;;;4991036;28;20841;-93
2021/12/13 12:26:55;;;;;;;70.30;13.20;;;;;;;;;;4997074;28;20208;-95
2021/12/13 12:29:26;;;;;;;70.70;14.00;;;;;;;;;;5003242;28;20440;-94
2021/12/13 12:31:57;;;;;;;75.37;14.23;;;;;;;;;;5001387;28;20483;-93
2021/12/13 12:34:27;;;;;;;71.82;13.05;;;;;;;;;;5001169;28;20478;-94
2021/12/13 12:37:24;;;;;;;74.10;13.68;;;;;;;;;;5000344;28;20200;-94
2021/12/13 12:40:09;;;;;;;70.80;12.18;;;;;;;;;;4918957;29;20278;-93
2021/12/13 12:42:38;;;;;;;72.55;13.10;;;;;;;;;;4991024;28;20252;-96
2021/12/13 12:45:10;;;;;;;73.80;14.20;;;;;;;;;;5003703;28;20196;-95
2021/12/13 12:47:51;;;;;;;72.57;15.25;;;;;;;;;;5001868;28;20205;-92
2021/12/13 12:50:22;;;;;;;70.90;13.43;;;;;;;;;;4986735;28;20198;-96
2021/12/13 12:52:50;;;;;;;72.43;13.07;;;;;;;;;;4998916;28;20246;-95
2021/12/13 12:55:18;;;;;;;73.18;14.15;;;;;;;;;;5000318;28;20220;-93
2021/12/13 12:57:47;;;;;;;73.88;14.70;;;;;;;;;;4999767;28;20212;-94
2021/12/13 13:00:14;;;;;;;78.68;17.35;;;;;;;;;;5000869;28;20176;-96
2021/12/13 13:02:43;;;;;;;79.05;17.55;;;;;;;;;;5003209;28;20892;-96
2021/12/13 13:05:10;;;;;;;75.55;13.90;;;;;;;;;;5000769;28;20227;-93
2021/12/13 13:07:37;;;;;;;70.40;12.30;;;;;;;;;;4999419;28;20211;-93
2021/12/13 13:10:18;;;;;;;75.23;13.63;;;;;;;;;;5005835;28;20201;-95
2021/12/13 13:12:47;;;;;;;70.45;12.75;;;;;;;;;;5020369;28;20466;-91
2021/12/13 13:15:15;;;;;;;74.93;14.38;;;;;;;;;;5018164;28;21425;-93
2021/12/13 13:17:43;;;;;;;72.10;13.38;;;;;;;;;;5016821;28;20261;-93
2021/12/13 13:20:12;;;;;;;72.60;13.90;;;;;;;;;;5019540;28;20206;-93
2021/12/13 13:22:41;;;;;;;73.50;14.90;;;;;;;;;;5031776;22;20216;-96
2021/12/13 13:25:11;;;;;;;72.15;14.25;;;;;;;;;;5017434;28;20252;-96
2021/12/13 13:27:38;;;;;;;76.60;14.30;;;;;;;;;;5017869;28;20204;-95
2021/12/13 13:30:11;;;;;;;75.97;15.57;;;;;;;;;;5019903;28;20204;-96
2021/12/13 13:32:38;;;;;;;73.80;14.60;;;;;;;;;;5015632;28;20224;-93
2021/12/13 13:35:05;;;;;;;74.78;15.02;;;;;;;;;;5022028;28;20954;-95
2021/12/13 13:37:35;;;;;;;73.95;15.10;;;;;;;;;;5019784;28;20212;-96
2021/12/13 13:40:05;;;;;;;73.20;15.00;;;;;;;;;;5020975;28;20212;-95
2021/12/13 13:42:33;;;;;;;72.60;14.27;;;;;;;;;;5019577;28;20563;-96
2021/12/13 13:45:29;;;;;;;74.10;15.23;;;;;;;;;;5024123;28;20203;-95
2021/12/13 13:47:59;;;;;;;67.55;10.93;;;;;;;;;;5024317;28;20248;-94
2021/12/13 13:50:27;;;;;;;78.22;14.60;;;;;;;;;;5019254;28;20572;-96
2021/12/13 13:52:56;;;;;;;75.57;14.82;;;;;;;;;;5019160;28;20227;-95
2021/12/13 13:55:25;;;;;;;78.70;15.13;;;;;;;;;;5019830;28;20209;-94
2021/12/13 13:57:53;;;;;;;77.88;16.08;;;;;;;;;;5017898;28;20467;-96
2021/12/13 14:00:32;;;;;;;75.07;14.47;;;;;;;;;;5018605;28;20269;-96
2021/12/13 14:03:01;;;;;;;72.47;14.20;;;;;;;;;;5020861;28;25172;-93
2021/12/13 14:05:27;;;;;;;;;;;;;;;;;;5017928;28;20092;-96
2021/12/13 14:07:56;;;;;;;80.20;15.30;;;;;;;;;;5016806;28;20222;-95
2021/12/13 14:10:23;;;;;;;74.18;14.40;;;;;;;;;;5023593;28;20459;-95
2021/12/13 14:12:56;;;;;;;74.32;14.02;;;;;;;;;;5020520;28;20169;-95
2021/12/13 14:18:27;;;;;;;75.53;14.55;;;;;;;;;;5032701;23;20319;-96
2021/12/13 14:20:55;;;;;;;;;;;;;;;;;;5039631;28;20084;-96
2021/12/13 14:23:22;;;;;;;;;;;;;;;;;;5039325;28;19920;-96
2021/12/13 14:25:53;;;;;;;79.93;14.57;;;;;;;;;;5034768;28;20846;-94
2021/12/13 14:28:35;;;;;;;79.97;15.40;;;;;;;;;;5417896;22;20246;-96
2021/12/13 14:31:11;;;;;;;85.78;18.40;;;;;;;;;;5058449;22;20266;-96
2021/12/13 14:34:03;;;;;;;73.10;13.60;;;;;;;;;;5167070;22;20234;-96
2021/12/13 14:36:32;;;;;;;74.43;14.80;;;;;;;;;;5045212;28;20197;-95
2021/12/13 14:39:21;;;;;;;76.20;14.65;;;;;;;;;;5050277;28;20204;-96
2021/12/13 14:42:01;;;;;;;80.25;15.48;;;;;;;;;;5046664;28;20224;-95
2021/12/13 14:47:17;;;;;;;79.85;16.60;;;;;;;;;;4671049;22;20227;-95
2021/12/13 14:49:47;;;;;;;73.10;14.07;;;;;;;;;;5046512;28;20723;-95
2021/12/13 15:00:44;;;;;;;83.53;18.50;;;;;;;;;;5467396;22;20217;-96
2021/12/13 15:03:16;;;;;;;76.80;15.40;;;;;;;;;;5042970;22;20560;-96
2021/12/13 15:06:01;;;;;;;80.95;17.40;;;;;;;;;;5313720;22;20474;-96
2021/12/13 15:08:31;;;;;;;79.40;15.98;;;;;;;;;;5028932;28;20248;-96
2021/12/13 15:10:59;;;;;;;82.05;17.45;;;;;;;;;;5212626;22;20262;-94
2021/12/13 15:16:37;;;;;;;81.13;16.33;;;;;;;;;;5434795;22;20497;-96
2021/12/13 15:19:06;;;;;;;82.43;15.87;;;;;;;;;;5048516;28;20203;-91
2021/12/13 15:24:21;;;;;;;;;;;;;;;;;;5026178;28;20054;-96
2021/12/13 15:27:00;;;;;;;;;;;;;;;;;;5152780;22;19964;-96
2021/12/13 15:29:37;;;;;;;;;;;;;;;;;;5041682;22;19949;-96
2021/12/13 15:32:04;;;;;;;;;;;;;;;;;;5574524;22;19924;-95
2021/12/13 15:37:20;;;;;;;;;;;;;;;;;;5361532;22;19936;-96
2021/12/13 15:39:48;;;;;;;;;;;;;;;;;;5044631;28;19944;-96
2021/12/13 15:45:22;;;;;;;72.35;14.20;;;;;;;;;;5537119;22;20225;-96
2021/12/13 15:50:54;;;;;;;78.63;16.45;;;;;;;;;;5046377;28;20189;-96
2021/12/13 15:53:26;;;;;;;77.50;15.80;;;;;;;;;;5044573;28;20207;-94
2021/12/13 16:01:37;;;;;;;76.22;16.05;;;;;;;;;;5025692;28;20434;-96
2021/12/13 16:12:20;;;;;;;76.32;14.65;;;;;;;;;;5241805;22;20728;-95
2021/12/13 16:17:36;;;;;;;76.72;15.85;;;;;;;;;;5275714;22;21183;-95
2021/12/13 16:28:22;;;;;;;76.38;15.65;;;;;;;;;;5135806;22;20239;-96
2021/12/13 16:33:21;;;;;;;75.35;15.65;;;;;;;;;;5151162;22;20263;-96
2021/12/13 16:38:29;;;;;;;81.18;15.80;;;;;;;;;;5381997;22;20520;-96
2021/12/13 16:43:38;;;;;;;77.80;15.55;;;;;;;;;;5370366;22;20231;-96
2021/12/13 16:48:57;;;;;;;81.45;16.13;;;;;;;;;;5628121;22;20893;-96
2021/12/13 17:14:07;;;;;;;76.80;14.27;;;;;;;;;;5434207;22;25074;-96
2021/12/13 17:17:19;;;;;;;72.90;14.90;;;;;;;;;;5704789;22;20200;31
2021/12/13 17:28:13;;;;;;;;;;;;;;;;;;4980591;28;19922;-95
2021/12/13 17:33:29;;;;;;;;;;;;;;;;;;5341451;22;19960;-96
2021/12/13 17:35:55;;;;;;;;;;;;;;;;;;5056105;28;19947;-95
2021/12/13 17:38:26;;;;;;;;;;;;;;;;;;5320042;22;20802;-96
2021/12/13 17:46:28;;;;;;;75.40;14.85;;;;;;;;;;5456685;23;20076;-96
2021/12/13 17:48:58;;;;;;;;;;;;;;;;;;5049800;28;20064;-96
2021/12/13 17:54:03;;;;;;;;;;;;;;;;;;5898754;22;19929;-96
2021/12/13 17:56:30;;;;;;;;;;;;;;;;;;5030814;28;19923;-96
2021/12/13 18:01:44;;;;;;;;;;;;;;;;;;5368705;22;19927;-96
2021/12/13 18:10:02;;;;;;;;;;;;;;;;;;5138406;22;19920;-96